Logo AVAMET
Benvolgut visitant, si us plau, ingressa Recuperar contrasenya

Alcoleja Beniafé

Dades diàries. Acumulats / Últims 30 dies disponibles

Data Temperatura (°C) Humitat rel. (%) Pressió rel. (hPa) Vent (km/h) Precipi-
tació (mm)
Mínima Mitjana Màxima Mínima Mitjana Màxima Mínima Mitjana Màxima Predom. Mitjana Ràfega
màxima
Mínima Mitjana Màxima Mínima Mitjana Màxima
Dades mensuals acumulades fins l'últim dia disponible
06/2018 8,9 13,1 15,5 18,1 19,1 24,2 28,9   5,8 45,1 63,2
Dades anuals acumulades fins l'últim dia disponible
2018 -2,4 6,6 16,9 11,0 2,9 16,7 28,9   7,1 78,9 294,6
Últims 30 dies disponibles
17-06-2018 15,4     21,6     28,9 ESE 4,5 27,4 0,0
16-06-2018 14,5     21,2     28,9 S 4,5 29,0 0,0
15-06-2018 14,2     20,2     26,6 S 7,1 33,8 0,0
14-06-2018 12,7     18,7     25,3 NW 4,7 32,2 0,0
13-06-2018 13,4     19,0     26,0 NNW 5,1 30,6 0,0
12-06-2018 13,7     18,8     24,8 N 5,1 25,7 0,0
11-06-2018 13,5     17,8     22,5 S 6,8 37,0 0,0
10-06-2018 13,4     17,7     22,6 NW 5,1 27,4 0,3
09-06-2018 15,5     19,5     25,7 S 7,2 35,4 2,0
08-06-2018 14,3     19,4     25,2 S 8,5 45,1 0,0
07-06-2018 8,9     15,1     21,8 SE 4,7 27,4 0,5
06-06-2018 11,4     14,6     19,1 NW 3,7 27,4 19,3
05-06-2018 13,2     16,3     20,9 S 6,4 27,4 0,0
04-06-2018 13,5     18,4     24,0 S 5,1 32,2 0,0
03-06-2018 10,5     15,3     22,4 NW 6,0 27,4 40,6
02-06-2018 11,2     16,2     22,3 ENE 5,1 25,7 0,5
01-06-2018 13,9     18,7     25,1 S 8,4 38,6 0,0
31-05-2018 11,7     17,7     24,7 S 7,1 38,6 0,0
30-05-2018 10,6     15,8     22,4 S 5,3 33,8 0,0
29-05-2018 11,3     16,3     23,0 S 6,4 37,0 0,0
28-05-2018 11,5     16,8     23,2 S 7,4 41,8 0,5
27-05-2018 12,7     17,6     23,9 S 7,1 48,3 0,0
26-05-2018 12,0     17,6     24,9 NW 5,5 30,6 0,0
25-05-2018 11,6     15,8     21,7 WNW 4,8 20,9 0,0
24-05-2018 12,8     18,0     26,9 E 6,8 33,8 0,3
23-05-2018 12,7     18,6     25,3 S 7,1 38,6 0,0
22-05-2018 9,8     16,0     22,8 S 5,6 30,6 0,0
21-05-2018 9,6     14,0     21,8 ESE 4,2 33,8 4,3
20-05-2018 8,8     14,1     20,9 SE 4,2 27,4 0,0
19-05-2018 7,7     14,7     22,6 ESE 4,5 29,0 0,0
Últims 13 mesos disponibles
05/2018 4,2 9,7 13,4 15,1 16,1 22,0 26,9 5,8 48,3 8,2
04/2018 3,8 7,6 12,1 12,3 7,8 18,4 25,1 7,4 62,8 15,0
03/2018 -2,1 5,6 16,9 9,5 8,2 14,2 20,2 10,8 78,9 20,2
02/2018 -2,4 1,9 8,2 5,5 2,9 10,6 18,7 5,7 53,1 68,8
01/2018 0,1 4,3 9,6 8,1 8,4 13,6 21,7 6,3 66,0 119,2
12/2017 -2,6 3,8 10,0 7,1 6,3 12,1 17,3 7,5 83,7 21,8
11/2017 1,2 6,3 11,9 10,6 7,9 16,7 22,1 5,1 48,3 6,6
10/2017 9,0 12,2 16,2 16,7 17,8 23,4 28,3 4,6 46,7 12,0
09/2017 9,8 14,1 17,4 19,1 17,3 25,6 32,2 5,3 40,2 47,0
08/2017 13,2 18,2 22,8 23,9 21,7 31,1 36,8 5,5 54,7 49,3
07/2017 12,4 18,2 24,1 24,3 22,7 31,8 39,8 5,9 40,2 18,3
06/2017 10,5 16,7 22,3 23,3 23,6 30,7 36,2 6,1 51,5 10,8
05/2017 7,3 11,4 16,2 17,5 18,1 24,5 29,6 6,3 46,7 0,0
Tots els anys disponibles
2017 -4,3 10,2 24,1 15,2 1,9 21,5 39,8 6,1 95,0 682,7
2016 -1,6 10,5 24,4 15,2 7,5 21,1 38,2 6,3 75,6 499,1
2015 -3,7 10,8 17,3 15,5 16,4 21,4 39,6 71 71 71 998 1.008 1.019 6,5 85,0 453,0
2014 -1,4 11,0 23,1 15,8 5,3 20,8 34,8 29 67 94 993 1.017 1.035 5,2 74,0 290,8
Temperatura (°C)
Humitat relativa (%)
Velocitat del vent (km/h) i direcció (°)
Pressió (hPa) i precipitació (mm)
Nota sobre les dades: s'avisa a l'usuari de la provisionalitat i no oficialitat d'aquestes dades
Logo AVAMET blanc
Llicència de Creative CommonsLa web d'AVAMET i els seus continguts estan subjectes a una llicència de
Reconeixement - No Comercial - Compartir igual
Properes estacions:  Quart de Poblet - Centre (Aj. soci), Navalón - ADENE (Soci), Borriol - Vall del Morico (Soci), Bicorp - Camping los Botijos (AVAMET), Pilar de la Horadada - Pinar de Campoverde (AVAMET), Manises - La Presa (AVAMET), Alberic - Urb. San Cristòbal (Inforatge), Sagunt - Policia Local (Inforatge)  - - - - -   Últimes estacions: Alzira - Mulata Alzicoop (soci), Fuenterrobles (Aj. soci), Santa Pola - Gran Alacant  (Aj. soci), Carlet - GP Suministros (Soci), Les Useres (Aj. soci), Castelló de la Plana - IES Sos Baynat (Soci) - - - - - - - - - - - - Properes estacions:  Quart de Poblet - Centre (Aj. soci), Navalón - ADENE (Soci), Borriol - Vall del Morico (Soci), Bicorp - Camping los Botijos (AVAMET), Pilar de la Horadada - Pinar de Campoverde (AVAMET), Manises - La Presa (AVAMET), Alberic - Urb. San Cristòbal (Inforatge), Sagunt - Policia Local (Inforatge)  - - - - -   Últimes estacions: Alzira - Mulata Alzicoop (soci), Fuenterrobles (Aj. soci), Santa Pola - Gran Alacant  (Aj. soci), Carlet - GP Suministros (Soci), Les Useres (Aj. soci), Castelló de la Plana - IES Sos Baynat (Soci)